createdAt,value
2023-08-27T00:08:38.129Z,14.80
2023-08-27T00:18:40.031Z,18.10
2023-08-27T00:28:42.002Z,17.45
2023-08-27T00:38:44.041Z,16.55
2023-08-27T00:48:46.269Z,16.73
2023-08-27T00:58:48.512Z,15.93
2023-08-27T01:08:58.699Z,14.55
2023-08-27T01:19:26.830Z,15.45
2023-08-27T01:29:37.570Z,15.77
2023-08-27T01:39:40.073Z,15.20
2023-08-27T01:49:42.158Z,15.45
2023-08-27T01:59:44.216Z,15.50
2023-08-27T02:09:46.296Z,15.70
2023-08-27T02:19:49.127Z,13.88
2023-08-27T02:29:51.209Z,14.65
2023-08-27T02:39:53.325Z,12.63
2023-08-27T02:49:55.342Z,12.50
2023-08-27T02:59:57.470Z,13.23
2023-08-27T03:09:59.504Z,12.65
2023-08-27T03:20:02.189Z,12.45
2023-08-27T03:30:05.196Z,13.07
2023-08-27T03:40:07.907Z,12.48
2023-08-27T03:50:10.170Z,13.07
2023-08-27T04:00:13.127Z,12.00
2023-08-27T04:11:11.074Z,11.30
2023-08-27T04:21:13.070Z,10.60
2023-08-27T04:31:17.706Z,11.18
2023-08-27T04:41:19.721Z,12.68
2023-08-27T04:51:21.780Z,11.27
2023-08-27T05:01:23.850Z,9.90
2023-08-27T05:11:28.852Z,12.55
2023-08-27T05:21:31.894Z,11.60
2023-08-27T05:31:47.995Z,12.50
2023-08-27T05:42:03.172Z,11.75
2023-08-27T05:52:12.201Z,9.55
2023-08-27T06:02:15.149Z,8.70
2023-08-27T06:12:17.239Z,8.07
2023-08-27T06:22:30.026Z,7.82
2023-08-27T06:32:32.657Z,6.93
2023-08-27T06:42:35.568Z,6.68
2023-08-27T06:52:43.580Z,5.95
2023-08-27T07:02:51.161Z,6.63
2023-08-27T07:12:53.950Z,5.05
2023-08-27T07:22:56.065Z,4.55
2023-08-27T07:33:07.643Z,4.95
2023-08-27T07:43:09.800Z,5.72
2023-08-27T07:53:12.043Z,5.22
2023-08-27T08:03:52.824Z,4.35
2023-08-27T08:14:04.014Z,4.30
2023-08-27T08:24:06.230Z,4.70
2023-08-27T08:34:31.113Z,5.95
2023-08-27T08:45:05.562Z,7.05
2023-08-27T08:55:10.934Z,6.72
2023-08-27T09:05:13.076Z,5.35
2023-08-27T09:15:28.291Z,6.13
2023-08-27T09:25:30.375Z,5.82
2023-08-27T09:35:39.256Z,5.40
2023-08-27T09:45:41.271Z,6.75
2023-08-27T09:55:51.951Z,7.00
2023-08-27T10:05:57.057Z,7.43
2023-08-27T10:15:59.692Z,7.82
2023-08-27T10:26:10.287Z,8.13
2023-08-27T10:36:23.393Z,4.85
2023-08-27T10:46:28.881Z,6.68
2023-08-27T10:56:39.428Z,6.75
2023-08-27T11:06:46.879Z,6.05
2023-08-27T11:17:36.382Z,5.22
2023-08-27T11:27:47.892Z,5.72
2023-08-27T11:37:49.866Z,5.63
2023-08-27T11:48:05.290Z,7.93
2023-08-27T11:58:09.442Z,5.53
2023-08-27T12:08:36.639Z,7.35
2023-08-27T12:18:39.701Z,6.70
2023-08-27T12:29:06.583Z,6.10
2023-08-27T12:39:38.884Z,4.88
2023-08-27T12:50:16.878Z,5.97
2023-08-27T13:00:22.624Z,5.03
2023-08-27T13:10:32.944Z,6.50
2023-08-27T13:20:40.447Z,7.95
2023-08-27T13:31:12.412Z,6.15
2023-08-27T13:41:35.622Z,5.20
2023-08-27T13:51:43.517Z,6.05
2023-08-27T14:01:48.771Z,7.22
2023-08-27T14:11:52.166Z,9.27
2023-08-27T14:22:56.061Z,7.32
2023-08-27T14:32:58.633Z,8.15
2023-08-27T14:43:03.000Z,8.68
2023-08-27T14:53:21.877Z,10.55
2023-08-27T15:13:35.134Z,12.05
2023-08-27T15:23:39.554Z,16.33
2023-08-27T15:34:06.860Z,18.42
2023-08-27T15:44:15.530Z,18.27
2023-08-27T15:54:30.912Z,15.10
2023-08-27T16:04:47.903Z,14.73
2023-08-27T16:14:55.061Z,14.32
2023-08-27T16:25:35.194Z,13.40
2023-08-27T16:35:52.087Z,14.60
2023-08-27T16:45:55.421Z,12.20
2023-08-27T16:55:58.102Z,15.13
2023-08-27T17:06:10.577Z,15.38
2023-08-27T17:16:16.566Z,13.65
2023-08-27T17:26:19.047Z,16.80
2023-08-27T17:36:21.140Z,17.85
2023-08-27T17:46:24.376Z,23.23
2023-08-27T17:56:26.908Z,22.95
2023-08-27T18:06:29.784Z,22.48
2023-08-27T18:16:57.847Z,19.90
2023-08-27T18:27:01.328Z,21.77
2023-08-27T18:37:07.734Z,15.85
2023-08-27T18:47:17.768Z,17.23
2023-08-27T18:57:21.522Z,16.27
2023-08-27T19:07:25.736Z,13.50
2023-08-27T19:17:37.355Z,14.57
2023-08-27T19:27:52.609Z,11.52
2023-08-27T19:38:07.519Z,8.48
2023-08-27T19:48:14.664Z,10.00
2023-08-27T19:58:26.544Z,8.82
2023-08-27T20:08:35.905Z,8.80
2023-08-27T20:18:40.573Z,6.53
2023-08-27T20:28:48.127Z,7.45
2023-08-27T20:39:01.066Z,7.22
2023-08-27T20:59:08.258Z,9.70
2023-08-27T21:09:19.216Z,9.82
2023-08-27T21:19:21.169Z,8.63
2023-08-27T21:29:23.208Z,9.00
2023-08-27T21:39:25.155Z,12.05
2023-08-27T21:49:38.334Z,11.30
2023-08-27T21:59:40.291Z,11.25
2023-08-27T22:10:01.868Z,13.57
2023-08-27T22:20:16.422Z,15.18
2023-08-27T22:30:22.596Z,12.23
2023-08-27T22:40:27.642Z,13.32
2023-08-27T22:50:29.587Z,14.43
2023-08-27T23:00:31.529Z,11.65
2023-08-27T23:10:34.717Z,14.43
2023-08-27T23:21:02.272Z,11.00
2023-08-27T23:31:10.121Z,12.40
2023-08-27T23:41:20.009Z,13.05
2023-08-27T23:51:33.123Z,15.85
